Terminal Aerodrome Forecast
Issued by NWS Kansas City/Pleasant Hill, MO

Home | Current Version | Previous Version | Text Only | Print | Product List | Glossary On
Versions: 1 2 3 4 5 6 7 8 9 10 11 12 13 14 15
000
FTUS43 KEAX 271700
TAFMCI
TAF
KMCI 271727Z 2718/2818 36007KT P6SM SCT035
     FM272100 VRB06KT P6SM BKN090
     FM280700 14011KT P6SM VCSH OVC050
     FM281100 11012KT P6SM SCT100=

USA.gov is the U.S. government's official web portal to all federal, state and local government web resources and services.